sensor_id;sensor_type;location;lat;lon;timestamp;pressure;altitude;pressure_sealevel;temperature;humidity
58473;BME280;44775;51.564;5.460;2023-04-20T00:00:03;101996.03;;;8.22;40.41
58473;BME280;44775;51.564;5.460;2023-04-20T00:02:38;101992.69;;;8.09;40.88
58473;BME280;44775;51.564;5.460;2023-04-20T00:05:06;101989.72;;;8.35;39.56
58473;BME280;44775;51.564;5.460;2023-04-20T00:07:32;101989.13;;;8.31;39.61
58473;BME280;44775;51.564;5.460;2023-04-20T00:09:57;101985.53;;;8.10;39.69
58473;BME280;44775;51.564;5.460;2023-04-20T00:12:22;101978.91;;;7.93;40.90
58473;BME280;44775;51.564;5.460;2023-04-20T00:14:47;101973.22;;;7.86;42.64
58473;BME280;44775;51.564;5.460;2023-04-20T00:17:12;101971.69;;;7.84;42.67
58473;BME280;44775;51.564;5.460;2023-04-20T00:19:38;101965.16;;;7.88;41.50
58473;BME280;44775;51.564;5.460;2023-04-20T00:22:03;101962.97;;;7.81;52.41
58473;BME280;44775;51.564;5.460;2023-04-20T00:24:28;101960.06;;;8.28;43.46
58473;BME280;44775;51.564;5.460;2023-04-20T00:26:53;101951.09;;;7.97;43.24
58473;BME280;44775;51.564;5.460;2023-04-20T00:29:19;101947.81;;;8.04;49.92
58473;BME280;44775;51.564;5.460;2023-04-20T00:31:44;101948.00;;;8.13;41.58
58473;BME280;44775;51.564;5.460;2023-04-20T00:34:09;101941.84;;;8.12;40.51
58473;BME280;44775;51.564;5.460;2023-04-20T00:36:35;101938.19;;;7.81;44.87
58473;BME280;44775;51.564;5.460;2023-04-20T00:39:00;101934.28;;;7.85;42.48
58473;BME280;44775;51.564;5.460;2023-04-20T00:41:26;101939.22;;;8.01;41.86
58473;BME280;44775;51.564;5.460;2023-04-20T00:43:51;101932.72;;;7.94;45.52
58473;BME280;44775;51.564;5.460;2023-04-20T00:46:18;101928.88;;;7.75;43.32
58473;BME280;44775;51.564;5.460;2023-04-20T00:48:43;101924.06;;;7.58;42.90
58473;BME280;44775;51.564;5.460;2023-04-20T00:51:09;101914.41;;;7.57;45.78
58473;BME280;44775;51.564;5.460;2023-04-20T00:53:34;101911.81;;;7.78;41.92
58473;BME280;44775;51.564;5.460;2023-04-20T00:56:00;101905.69;;;7.44;44.64
58473;BME280;44775;51.564;5.460;2023-04-20T00:58:25;101899.88;;;7.39;47.42
58473;BME280;44775;51.564;5.460;2023-04-20T01:00:50;101890.84;;;7.30;52.96
58473;BME280;44775;51.564;5.460;2023-04-20T01:03:16;101890.72;;;7.20;46.17
58473;BME280;44775;51.564;5.460;2023-04-20T01:05:41;101890.97;;;7.06;47.08
58473;BME280;44775;51.564;5.460;2023-04-20T01:08:07;101886.88;;;7.13;47.58
58473;BME280;44775;51.564;5.460;2023-04-20T01:10:32;101886.97;;;7.00;45.46
58473;BME280;44775;51.564;5.460;2023-04-20T01:12:57;101880.31;;;6.95;49.88
58473;BME280;44775;51.564;5.460;2023-04-20T01:15:22;101877.78;;;6.93;49.79
58473;BME280;44775;51.564;5.460;2023-04-20T01:17:47;101866.91;;;7.19;46.03
58473;BME280;44775;51.564;5.460;2023-04-20T01:20:13;101870.03;;;7.35;45.71
58473;BME280;44775;51.564;5.460;2023-04-20T01:22:51;101858.59;;;7.12;46.46
58473;BME280;44775;51.564;5.460;2023-04-20T01:25:18;101862.69;;;7.05;44.45
58473;BME280;44775;51.564;5.460;2023-04-20T01:27:44;101853.38;;;7.10;45.41
58473;BME280;44775;51.564;5.460;2023-04-20T01:30:09;101847.72;;;7.04;47.00
58473;BME280;44775;51.564;5.460;2023-04-20T01:32:35;101841.19;;;6.97;53.90
58473;BME280;44775;51.564;5.460;2023-04-20T01:35:00;101840.44;;;6.95;47.07
58473;BME280;44775;51.564;5.460;2023-04-20T01:37:25;101837.56;;;6.86;51.76
58473;BME280;44775;51.564;5.460;2023-04-20T01:39:51;101840.94;;;6.77;48.20
58473;BME280;44775;51.564;5.460;2023-04-20T01:42:16;101838.03;;;6.69;50.52
58473;BME280;44775;51.564;5.460;2023-04-20T01:44:41;101837.66;;;6.85;49.55
58473;BME280;44775;51.564;5.460;2023-04-20T01:47:06;101830.56;;;6.85;47.90
58473;BME280;44775;51.564;5.460;2023-04-20T01:49:32;101826.72;;;6.78;52.48
58473;BME280;44775;51.564;5.460;2023-04-20T01:51:57;101816.06;;;7.01;46.29
58473;BME280;44775;51.564;5.460;2023-04-20T01:54:22;101814.25;;;6.90;47.16
58473;BME280;44775;51.564;5.460;2023-04-20T01:56:47;101807.03;;;6.92;46.53
58473;BME280;44775;51.564;5.460;2023-04-20T01:59:12;101808.56;;;6.83;48.79
58473;BME280;44775;51.564;5.460;2023-04-20T02:01:38;101807.47;;;6.63;46.28
58473;BME280;44775;51.564;5.460;2023-04-20T02:04:03;101808.19;;;6.43;47.74
58473;BME280;44775;51.564;5.460;2023-04-20T02:06:28;101806.81;;;6.15;47.36
58473;BME280;44775;51.564;5.460;2023-04-20T02:08:53;101795.66;;;6.10;48.81
58473;BME280;44775;51.564;5.460;2023-04-20T02:11:18;101797.38;;;6.11;47.92
58473;BME280;44775;51.564;5.460;2023-04-20T02:13:45;101789.59;;;5.97;49.24
58473;BME280;44775;51.564;5.460;2023-04-20T02:16:11;101791.63;;;5.93;49.50
58473;BME280;44775;51.564;5.460;2023-04-20T02:18:36;101788.13;;;5.93;50.85
58473;BME280;44775;51.564;5.460;2023-04-20T02:21:01;101784.81;;;6.13;50.74
58473;BME280;44775;51.564;5.460;2023-04-20T02:23:27;101779.28;;;6.05;54.91
58473;BME280;44775;51.564;5.460;2023-04-20T02:25:52;101774.13;;;6.14;49.30
58473;BME280;44775;51.564;5.460;2023-04-20T02:28:17;101769.66;;;6.15;49.50
58473;BME280;44775;51.564;5.460;2023-04-20T02:30:42;101766.38;;;6.11;54.95
58473;BME280;44775;51.564;5.460;2023-04-20T02:33:08;101762.66;;;6.36;54.56
58473;BME280;44775;51.564;5.460;2023-04-20T02:35:33;101763.38;;;6.27;51.58
58473;BME280;44775;51.564;5.460;2023-04-20T02:37:58;101768.44;;;6.30;52.31
58473;BME280;44775;51.564;5.460;2023-04-20T02:40:23;101760.38;;;6.32;51.11
58473;BME280;44775;51.564;5.460;2023-04-20T02:42:48;101768.81;;;6.37;54.24
58473;BME280;44775;51.564;5.460;2023-04-20T02:45:14;101766.06;;;6.61;54.21
58473;BME280;44775;51.564;5.460;2023-04-20T02:47:39;101755.81;;;6.45;54.58
58473;BME280;44775;51.564;5.460;2023-04-20T02:50:04;101749.66;;;6.45;58.50
58473;BME280;44775;51.564;5.460;2023-04-20T02:52:30;101746.28;;;6.43;52.29
58473;BME280;44775;51.564;5.460;2023-04-20T02:54:55;101751.09;;;6.60;53.07
58473;BME280;44775;51.564;5.460;2023-04-20T02:57:20;101744.94;;;6.59;55.84
58473;BME280;44775;51.564;5.460;2023-04-20T02:59:46;101749.53;;;6.80;53.54
58473;BME280;44775;51.564;5.460;2023-04-20T03:02:11;101746.28;;;6.65;57.29
58473;BME280;44775;51.564;5.460;2023-04-20T03:04:38;101743.88;;;6.62;58.10
58473;BME280;44775;51.564;5.460;2023-04-20T03:07:03;101740.22;;;6.74;53.81
58473;BME280;44775;51.564;5.460;2023-04-20T03:09:28;101734.69;;;6.55;56.09
58473;BME280;44775;51.564;5.460;2023-04-20T03:11:54;101733.22;;;6.51;53.31
58473;BME280;44775;51.564;5.460;2023-04-20T03:14:19;101734.44;;;6.58;56.23
58473;BME280;44775;51.564;5.460;2023-04-20T03:16:44;101734.66;;;6.77;53.65
58473;BME280;44775;51.564;5.460;2023-04-20T03:19:10;101731.06;;;6.56;57.39
58473;BME280;44775;51.564;5.460;2023-04-20T03:21:35;101725.25;;;6.51;58.61
58473;BME280;44775;51.564;5.460;2023-04-20T03:24:00;101727.56;;;6.44;57.27
58473;BME280;44775;51.564;5.460;2023-04-20T03:26:25;101724.31;;;6.52;55.61
58473;BME280;44775;51.564;5.460;2023-04-20T03:28:51;101723.34;;;6.42;59.20
58473;BME280;44775;51.564;5.460;2023-04-20T03:31:17;101728.41;;;6.67;57.12
58473;BME280;44775;51.564;5.460;2023-04-20T03:33:42;101729.13;;;6.80;56.32
58473;BME280;44775;51.564;5.460;2023-04-20T03:36:07;101723.22;;;6.77;58.44
58473;BME280;44775;51.564;5.460;2023-04-20T03:38:33;101711.47;;;6.91;56.71
58473;BME280;44775;51.564;5.460;2023-04-20T03:40:58;101713.28;;;6.90;56.58
58473;BME280;44775;51.564;5.460;2023-04-20T03:43:24;101709.25;;;7.07;55.97
58473;BME280;44775;51.564;5.460;2023-04-20T03:45:49;101699.38;;;6.98;64.24
58473;BME280;44775;51.564;5.460;2023-04-20T03:48:14;101704.44;;;7.12;56.11
58473;BME280;44775;51.564;5.460;2023-04-20T03:50:39;101707.34;;;7.09;57.76
58473;BME280;44775;51.564;5.460;2023-04-20T03:53:05;101705.97;;;7.15;59.50
58473;BME280;44775;51.564;5.460;2023-04-20T03:55:30;101700.44;;;7.06;58.66
58473;BME280;44775;51.564;5.460;2023-04-20T03:57:55;101690.66;;;7.07;57.83
58473;BME280;44775;51.564;5.460;2023-04-20T04:00:20;101691.09;;;7.23;57.25
58473;BME280;44775;51.564;5.460;2023-04-20T04:02:46;101698.88;;;7.04;60.42
58473;BME280;44775;51.564;5.460;2023-04-20T04:05:11;101697.31;;;7.01;57.38
58473;BME280;44775;51.564;5.460;2023-04-20T04:07:36;101688.22;;;7.15;61.06
58473;BME280;44775;51.564;5.460;2023-04-20T04:10:01;101677.91;;;7.22;57.57
58473;BME280;44775;51.564;5.460;2023-04-20T04:12:28;101684.59;;;7.16;59.31
58473;BME280;44775;51.564;5.460;2023-04-20T04:14:54;101681.22;;;7.14;60.20
58473;BME280;44775;51.564;5.460;2023-04-20T04:17:19;101686.22;;;7.28;61.45
58473;BME280;44775;51.564;5.460;2023-04-20T04:19:44;101677.41;;;7.28;62.11
58473;BME280;44775;51.564;5.460;2023-04-20T04:22:10;101682.63;;;7.29;60.06
58473;BME280;44775;51.564;5.460;2023-04-20T04:24:35;101669.91;;;7.33;60.95
58473;BME280;44775;51.564;5.460;2023-04-20T04:27:02;101669.44;;;7.28;61.60
58473;BME280;44775;51.564;5.460;2023-04-20T04:29:29;101657.16;;;7.48;61.46
58473;BME280;44775;51.564;5.460;2023-04-20T04:31:54;101657.31;;;7.35;65.36
58473;BME280;44775;51.564;5.460;2023-04-20T04:34:19;101642.75;;;7.50;60.63
58473;BME280;44775;51.564;5.460;2023-04-20T04:36:44;101651.38;;;7.43;61.77
58473;BME280;44775;51.564;5.460;2023-04-20T04:39:10;101645.59;;;7.38;62.34
58473;BME280;44775;51.564;5.460;2023-04-20T04:41:35;101638.47;;;7.59;62.46
58473;BME280;44775;51.564;5.460;2023-04-20T04:44:00;101636.13;;;7.66;60.95
58473;BME280;44775;51.564;5.460;2023-04-20T04:46:26;101638.19;;;7.62;60.80
58473;BME280;44775;51.564;5.460;2023-04-20T04:48:52;101643.06;;;7.78;59.92
58473;BME280;44775;51.564;5.460;2023-04-20T04:51:17;101638.84;;;7.54;62.25
58473;BME280;44775;51.564;5.460;2023-04-20T04:53:42;101628.66;;;7.80;62.11
58473;BME280;44775;51.564;5.460;2023-04-20T04:56:10;101632.03;;;7.62;64.18
58473;BME280;44775;51.564;5.460;2023-04-20T04:58:35;101624.28;;;7.79;64.45
58473;BME280;44775;51.564;5.460;2023-04-20T05:01:00;101624.44;;;7.78;65.57
58473;BME280;44775;51.564;5.460;2023-04-20T05:03:26;101621.00;;;7.87;61.47
58473;BME280;44775;51.564;5.460;2023-04-20T05:05:51;101625.72;;;8.04;61.96
58473;BME280;44775;51.564;5.460;2023-04-20T05:08:16;101632.00;;;8.34;58.74
58473;BME280;44775;51.564;5.460;2023-04-20T05:10:41;101620.59;;;8.22;61.25
58473;BME280;44775;51.564;5.460;2023-04-20T05:13:06;101627.44;;;8.15;59.24
58473;BME280;44775;51.564;5.460;2023-04-20T05:15:32;101621.69;;;8.10;60.81
58473;BME280;44775;51.564;5.460;2023-04-20T05:17:57;101624.25;;;8.21;61.52
58473;BME280;44775;51.564;5.460;2023-04-20T05:20:22;101625.28;;;8.09;61.35
58473;BME280;44775;51.564;5.460;2023-04-20T05:22:48;101623.34;;;8.42;60.62
58473;BME280;44775;51.564;5.460;2023-04-20T05:25:13;101623.25;;;8.22;60.20
58473;BME280;44775;51.564;5.460;2023-04-20T05:27:38;101624.03;;;8.03;61.01
58473;BME280;44775;51.564;5.460;2023-04-20T05:30:03;101616.09;;;8.23;65.00
58473;BME280;44775;51.564;5.460;2023-04-20T05:32:29;101617.13;;;8.32;62.91
58473;BME280;44775;51.564;5.460;2023-04-20T05:34:54;101630.63;;;8.40;59.94
58473;BME280;44775;51.564;5.460;2023-04-20T05:37:19;101618.03;;;8.42;60.29
58473;BME280;44775;51.564;5.460;2023-04-20T05:39:45;101620.69;;;8.42;60.24
58473;BME280;44775;51.564;5.460;2023-04-20T05:42:10;101623.28;;;8.32;61.05
58473;BME280;44775;51.564;5.460;2023-04-20T05:44:35;101619.78;;;8.32;61.74
58473;BME280;44775;51.564;5.460;2023-04-20T05:47:01;101609.88;;;8.43;60.74
58473;BME280;44775;51.564;5.460;2023-04-20T05:49:30;101615.03;;;8.35;62.47
58473;BME280;44775;51.564;5.460;2023-04-20T05:51:55;101613.81;;;8.39;64.29
58473;BME280;44775;51.564;5.460;2023-04-20T05:54:21;101607.56;;;8.60;60.33
58473;BME280;44775;51.564;5.460;2023-04-20T05:56:46;101604.97;;;8.39;61.20
58473;BME280;44775;51.564;5.460;2023-04-20T05:59:11;101608.66;;;8.57;60.54
58473;BME280;44775;51.564;5.460;2023-04-20T06:01:37;101619.50;;;8.65;60.30
58473;BME280;44775;51.564;5.460;2023-04-20T06:04:02;101612.72;;;8.51;61.15
58473;BME280;44775;51.564;5.460;2023-04-20T06:06:27;101608.28;;;8.71;60.83
58473;BME280;44775;51.564;5.460;2023-04-20T06:08:52;101607.91;;;8.95;58.84
58473;BME280;44775;51.564;5.460;2023-04-20T06:11:19;101602.41;;;8.68;60.43
58473;BME280;44775;51.564;5.460;2023-04-20T06:13:44;101607.44;;;8.81;59.96
58473;BME280;44775;51.564;5.460;2023-04-20T06:16:09;101605.66;;;8.81;60.22
58473;BME280;44775;51.564;5.460;2023-04-20T06:18:35;101612.81;;;9.19;58.54
58473;BME280;44775;51.564;5.460;2023-04-20T06:21:01;101604.78;;;9.00;59.68
58473;BME280;44775;51.564;5.460;2023-04-20T06:23:26;101605.25;;;9.05;59.45
58473;BME280;44775;51.564;5.460;2023-04-20T06:25:51;101601.84;;;9.13;59.24
58473;BME280;44775;51.564;5.460;2023-04-20T06:28:16;101599.91;;;9.05;60.74
58473;BME280;44775;51.564;5.460;2023-04-20T06:30:41;101608.84;;;9.04;59.62
58473;BME280;44775;51.564;5.460;2023-04-20T06:33:07;101601.56;;;8.96;59.73
58473;BME280;44775;51.564;5.460;2023-04-20T06:35:32;101591.47;;;9.00;59.98
58473;BME280;44775;51.564;5.460;2023-04-20T06:37:57;101595.69;;;9.03;62.33
58473;BME280;44775;51.564;5.460;2023-04-20T06:40:26;101587.25;;;9.17;61.61
58473;BME280;44775;51.564;5.460;2023-04-20T06:42:51;101585.31;;;9.19;64.60
58473;BME280;44775;51.564;5.460;2023-04-20T06:45:16;101588.09;;;9.37;60.45
58473;BME280;44775;51.564;5.460;2023-04-20T06:47:42;101588.25;;;9.35;59.79
58473;BME280;44775;51.564;5.460;2023-04-20T06:50:07;101586.81;;;9.31;59.47
58473;BME280;44775;51.564;5.460;2023-04-20T06:52:34;101589.47;;;9.41;59.50
58473;BME280;44775;51.564;5.460;2023-04-20T06:54:59;101590.13;;;9.72;57.48
58473;BME280;44775;51.564;5.460;2023-04-20T06:57:24;101590.75;;;9.46;59.58
58473;BME280;44775;51.564;5.460;2023-04-20T06:59:49;101593.94;;;9.60;59.36
58473;BME280;44775;51.564;5.460;2023-04-20T07:02:15;101595.06;;;9.57;59.57
58473;BME280;44775;51.564;5.460;2023-04-20T07:04:40;101592.19;;;9.78;59.19
58473;BME280;44775;51.564;5.460;2023-04-20T07:07:05;101587.72;;;9.79;57.79
58473;BME280;44775;51.564;5.460;2023-04-20T07:09:30;101588.31;;;9.63;58.13
58473;BME280;44775;51.564;5.460;2023-04-20T07:11:56;101589.19;;;9.54;59.02
58473;BME280;44775;51.564;5.460;2023-04-20T07:14:21;101588.03;;;9.66;57.62
58473;BME280;44775;51.564;5.460;2023-04-20T07:16:46;101594.31;;;9.75;59.38
58473;BME280;44775;51.564;5.460;2023-04-20T07:19:11;101593.56;;;9.92;57.23
58473;BME280;44775;51.564;5.460;2023-04-20T07:21:37;101599.16;;;9.99;57.16
58473;BME280;44775;51.564;5.460;2023-04-20T07:24:02;101596.72;;;10.05;57.57
58473;BME280;44775;51.564;5.460;2023-04-20T07:26:27;101597.44;;;10.07;61.33
58473;BME280;44775;51.564;5.460;2023-04-20T07:28:52;101603.59;;;10.17;57.02
58473;BME280;44775;51.564;5.460;2023-04-20T07:31:17;101597.41;;;10.17;57.64
58473;BME280;44775;51.564;5.460;2023-04-20T07:33:43;101595.56;;;10.27;58.22
58473;BME280;44775;51.564;5.460;2023-04-20T07:36:08;101587.38;;;10.29;58.83
58473;BME280;44775;51.564;5.460;2023-04-20T07:38:33;101590.34;;;10.26;55.87
58473;BME280;44775;51.564;5.460;2023-04-20T07:40:58;101591.09;;;10.08;57.69
58473;BME280;44775;51.564;5.460;2023-04-20T07:43:24;101591.81;;;10.10;60.03
58473;BME280;44775;51.564;5.460;2023-04-20T07:45:49;101590.78;;;10.21;58.25
58473;BME280;44775;51.564;5.460;2023-04-20T07:48:14;101579.38;;;10.56;57.82
58473;BME280;44775;51.564;5.460;2023-04-20T07:50:39;101583.34;;;10.70;56.10
58473;BME280;44775;51.564;5.460;2023-04-20T07:53:05;101582.50;;;10.70;55.10
58473;BME280;44775;51.564;5.460;2023-04-20T07:55:30;101593.09;;;10.44;56.00
58473;BME280;44775;51.564;5.460;2023-04-20T07:57:56;101595.84;;;10.52;56.12
58473;BME280;44775;51.564;5.460;2023-04-20T08:00:21;101593.03;;;10.53;55.79
58473;BME280;44775;51.564;5.460;2023-04-20T08:02:46;101598.63;;;10.60;55.61
58473;BME280;44775;51.564;5.460;2023-04-20T08:05:12;101593.56;;;10.57;55.88
58473;BME280;44775;51.564;5.460;2023-04-20T08:07:37;101593.88;;;10.54;56.11
58473;BME280;44775;51.564;5.460;2023-04-20T08:10:03;101582.03;;;10.56;55.58
58473;BME280;44775;51.564;5.460;2023-04-20T08:12:28;101586.81;;;10.53;55.17
58473;BME280;44775;51.564;5.460;2023-04-20T08:14:53;101581.22;;;10.18;57.50
58473;BME280;44775;51.564;5.460;2023-04-20T08:17:18;101574.72;;;10.31;57.45
58473;BME280;44775;51.564;5.460;2023-04-20T08:19:43;101576.38;;;10.59;55.76
58473;BME280;44775;51.564;5.460;2023-04-20T08:22:09;101580.56;;;10.44;56.39
58473;BME280;44775;51.564;5.460;2023-04-20T08:24:36;101576.41;;;10.22;57.53
58473;BME280;44775;51.564;5.460;2023-04-20T08:27:01;101565.81;;;10.12;58.93
58473;BME280;44775;51.564;5.460;2023-04-20T08:29:26;101564.09;;;10.11;61.05
58473;BME280;44775;51.564;5.460;2023-04-20T08:31:51;101571.16;;;10.40;57.42
58473;BME280;44775;51.564;5.460;2023-04-20T08:34:17;101561.66;;;10.28;58.13
58473;BME280;44775;51.564;5.460;2023-04-20T08:36:42;101563.63;;;10.26;58.85
58473;BME280;44775;51.564;5.460;2023-04-20T08:39:12;101558.72;;;10.49;59.33
58473;BME280;44775;51.564;5.460;2023-04-20T08:41:38;101549.09;;;10.56;58.60
58473;BME280;44775;51.564;5.460;2023-04-20T08:44:03;101555.53;;;10.63;58.06
58473;BME280;44775;51.564;5.460;2023-04-20T08:46:29;101544.22;;;10.69;58.25
58473;BME280;44775;51.564;5.460;2023-04-20T08:48:54;101548.22;;;10.65;58.11
58473;BME280;44775;51.564;5.460;2023-04-20T08:51:20;101545.28;;;11.12;56.32
58473;BME280;44775;51.564;5.460;2023-04-20T08:53:46;101552.03;;;10.80;57.62
58473;BME280;44775;51.564;5.460;2023-04-20T08:56:11;101547.75;;;10.87;57.31
58473;BME280;44775;51.564;5.460;2023-04-20T08:58:36;101544.16;;;10.97;57.49
58473;BME280;44775;51.564;5.460;2023-04-20T09:01:06;101539.00;;;11.21;55.25
58473;BME280;44775;51.564;5.460;2023-04-20T09:03:40;101543.16;;;10.98;56.34
58473;BME280;44775;51.564;5.460;2023-04-20T09:06:16;101533.78;;;10.94;56.27
58473;BME280;44775;51.564;5.460;2023-04-20T09:08:42;101549.69;;;10.77;57.93
58473;BME280;44775;51.564;5.460;2023-04-20T09:11:19;101539.63;;;11.15;55.61
58473;BME280;44775;51.564;5.460;2023-04-20T09:13:44;101540.84;;;11.03;55.89
58473;BME280;44775;51.564;5.460;2023-04-20T09:16:20;101542.88;;;10.65;57.38
58473;BME280;44775;51.564;5.460;2023-04-20T09:18:52;101550.03;;;10.64;57.56
58473;BME280;44775;51.564;5.460;2023-04-20T09:21:18;101535.53;;;10.85;56.90
58473;BME280;44775;51.564;5.460;2023-04-20T09:23:43;101534.75;;;10.93;56.78
58473;BME280;44775;51.564;5.460;2023-04-20T09:26:19;101546.63;;;10.90;57.21
58473;BME280;44775;51.564;5.460;2023-04-20T09:28:44;101533.63;;;10.95;57.05
58473;BME280;44775;51.564;5.460;2023-04-20T09:31:19;101540.56;;;11.06;56.92
58473;BME280;44775;51.564;5.460;2023-04-20T09:33:54;101527.66;;;11.01;56.49
58473;BME280;44775;51.564;5.460;2023-04-20T09:36:19;101534.22;;;11.07;58.01
58473;BME280;44775;51.564;5.460;2023-04-20T09:38:45;101534.53;;;11.30;56.78
58473;BME280;44775;51.564;5.460;2023-04-20T09:41:10;101529.81;;;11.50;55.09
58473;BME280;44775;51.564;5.460;2023-04-20T09:43:35;101530.00;;;11.48;54.64
58473;BME280;44775;51.564;5.460;2023-04-20T09:46:01;101539.16;;;11.20;55.62
58473;BME280;44775;51.564;5.460;2023-04-20T09:48:26;101530.19;;;11.29;55.90
58473;BME280;44775;51.564;5.460;2023-04-20T09:50:52;101533.03;;;11.27;55.53
58473;BME280;44775;51.564;5.460;2023-04-20T09:53:18;101529.00;;;11.05;55.81
58473;BME280;44775;51.564;5.460;2023-04-20T09:55:44;101524.50;;;11.06;57.49
58473;BME280;44775;51.564;5.460;2023-04-20T09:58:10;101525.69;;;11.29;55.45
58473;BME280;44775;51.564;5.460;2023-04-20T10:00:35;101506.69;;;11.15;55.35
58473;BME280;44775;51.564;5.460;2023-04-20T10:03:00;101505.00;;;11.14;55.64
58473;BME280;44775;51.564;5.460;2023-04-20T10:05:34;101508.63;;;11.04;56.38
58473;BME280;44775;51.564;5.460;2023-04-20T10:08:00;101498.66;;;11.15;55.98
58473;BME280;44775;51.564;5.460;2023-04-20T10:10:26;101506.25;;;11.53;54.07
58473;BME280;44775;51.564;5.460;2023-04-20T10:12:52;101515.16;;;11.28;55.16
58473;BME280;44775;51.564;5.460;2023-04-20T10:15:17;101509.09;;;11.26;56.23
58473;BME280;44775;51.564;5.460;2023-04-20T10:17:42;101501.91;;;11.26;54.75
58473;BME280;44775;51.564;5.460;2023-04-20T10:20:18;101505.63;;;11.07;57.00
58473;BME280;44775;51.564;5.460;2023-04-20T10:22:44;101500.06;;;11.27;56.61
58473;BME280;44775;51.564;5.460;2023-04-20T10:25:14;101511.66;;;11.62;54.95
58473;BME280;44775;51.564;5.460;2023-04-20T10:27:50;101503.31;;;11.65;54.21
58473;BME280;44775;51.564;5.460;2023-04-20T10:30:16;101497.50;;;11.43;55.00
58473;BME280;44775;51.564;5.460;2023-04-20T10:32:41;101494.50;;;11.46;55.21
58473;BME280;44775;51.564;5.460;2023-04-20T10:35:08;101506.03;;;11.73;54.65
58473;BME280;44775;51.564;5.460;2023-04-20T10:37:33;101488.13;;;11.73;54.82
58473;BME280;44775;51.564;5.460;2023-04-20T10:39:59;101481.91;;;11.65;54.86
58473;BME280;44775;51.564;5.460;2023-04-20T10:42:24;101484.19;;;11.86;54.94
58473;BME280;44775;51.564;5.460;2023-04-20T10:44:53;101485.56;;;11.90;54.52
58473;BME280;44775;51.564;5.460;2023-04-20T10:47:25;101483.19;;;11.87;54.48
58473;BME280;44775;51.564;5.460;2023-04-20T10:49:51;101474.81;;;12.32;53.10
58473;BME280;44775;51.564;5.460;2023-04-20T10:52:16;101469.97;;;12.68;51.48
58473;BME280;44775;51.564;5.460;2023-04-20T10:54:41;101472.81;;;12.83;51.38
58473;BME280;44775;51.564;5.460;2023-04-20T10:57:06;101470.44;;;13.21;49.46
58473;BME280;44775;51.564;5.460;2023-04-20T10:59:31;101479.25;;;13.62;48.92
58473;BME280;44775;51.564;5.460;2023-04-20T11:01:59;101478.50;;;13.85;49.23
58473;BME280;44775;51.564;5.460;2023-04-20T11:04:31;101486.00;;;13.89;47.81
58473;BME280;44775;51.564;5.460;2023-04-20T11:07:03;101479.72;;;13.66;48.35
58473;BME280;44775;51.564;5.460;2023-04-20T11:09:31;101482.84;;;13.38;48.94
58473;BME280;44775;51.564;5.460;2023-04-20T11:11:58;101479.16;;;13.15;48.97
58473;BME280;44775;51.564;5.460;2023-04-20T11:14:24;101469.13;;;13.00;49.70
58473;BME280;44775;51.564;5.460;2023-04-20T11:16:52;101469.66;;;12.80;49.38
58473;BME280;44775;51.564;5.460;2023-04-20T11:19:24;101466.59;;;12.34;51.06
58473;BME280;44775;51.564;5.460;2023-04-20T11:21:49;101464.78;;;12.67;50.31
58473;BME280;44775;51.564;5.460;2023-04-20T11:24:21;101456.22;;;12.88;49.30
58473;BME280;44775;51.564;5.460;2023-04-20T11:26:47;101448.84;;;12.90;49.84
58473;BME280;44775;51.564;5.460;2023-04-20T11:29:28;101451.38;;;12.67;49.80
58473;BME280;44775;51.564;5.460;2023-04-20T11:31:54;101452.66;;;12.38;50.78
58473;BME280;44775;51.564;5.460;2023-04-20T11:34:20;101450.00;;;12.22;51.65
58473;BME280;44775;51.564;5.460;2023-04-20T11:36:45;101434.34;;;11.85;54.20
58473;BME280;44775;51.564;5.460;2023-04-20T11:39:10;101435.59;;;11.80;54.67
58473;BME280;44775;51.564;5.460;2023-04-20T11:41:38;101437.34;;;11.90;53.69
58473;BME280;44775;51.564;5.460;2023-04-20T11:44:06;101438.03;;;12.08;54.12
58473;BME280;44775;51.564;5.460;2023-04-20T11:46:33;101424.88;;;12.39;52.50
58473;BME280;44775;51.564;5.460;2023-04-20T11:48:58;101430.44;;;12.62;52.60
58473;BME280;44775;51.564;5.460;2023-04-20T11:51:24;101416.19;;;12.70;53.34
58473;BME280;44775;51.564;5.460;2023-04-20T11:53:52;101424.72;;;12.65;52.57
58473;BME280;44775;51.564;5.460;2023-04-20T11:56:18;101429.91;;;12.67;51.66
58473;BME280;44775;51.564;5.460;2023-04-20T11:58:43;101427.75;;;12.62;52.88
58473;BME280;44775;51.564;5.460;2023-04-20T12:01:08;101422.69;;;12.35;55.69
58473;BME280;44775;51.564;5.460;2023-04-20T12:03:34;101461.38;;;12.24;56.36
58473;BME280;44775;51.564;5.460;2023-04-20T12:05:59;101453.94;;;11.25;60.43
58473;BME280;44775;51.564;5.460;2023-04-20T12:08:24;101445.69;;;10.92;62.46
58473;BME280;44775;51.564;5.460;2023-04-20T12:10:50;101444.53;;;10.33;63.90
58473;BME280;44775;51.564;5.460;2023-04-20T12:13:15;101443.63;;;10.14;65.85
58473;BME280;44775;51.564;5.460;2023-04-20T12:15:40;101448.47;;;10.29;67.30
58473;BME280;44775;51.564;5.460;2023-04-20T12:18:05;101450.31;;;10.28;66.16
58473;BME280;44775;51.564;5.460;2023-04-20T12:20:31;101447.41;;;9.94;71.69
58473;BME280;44775;51.564;5.460;2023-04-20T12:22:56;101443.16;;;10.01;71.97
58473;BME280;44775;51.564;5.460;2023-04-20T12:25:21;101430.31;;;10.32;71.89
58473;BME280;44775;51.564;5.460;2023-04-20T12:27:46;101438.78;;;10.63;69.26
58473;BME280;44775;51.564;5.460;2023-04-20T12:30:12;101424.91;;;10.86;71.65
58473;BME280;44775;51.564;5.460;2023-04-20T12:32:37;101428.06;;;11.07;69.71
58473;BME280;44775;51.564;5.460;2023-04-20T12:35:03;101429.31;;;11.55;68.36
58473;BME280;44775;51.564;5.460;2023-04-20T12:37:28;101416.97;;;12.13;66.92
58473;BME280;44775;51.564;5.460;2023-04-20T12:39:53;101411.13;;;12.75;63.70
58473;BME280;44775;51.564;5.460;2023-04-20T12:42:19;101417.88;;;13.43;59.01
58473;BME280;44775;51.564;5.460;2023-04-20T12:44:44;101415.69;;;13.86;55.47
58473;BME280;44775;51.564;5.460;2023-04-20T12:47:09;101429.69;;;14.04;53.90